createdAt,value
2016-08-20T00:00:05.182Z,17.59
2016-08-20T00:01:05.182Z,17.63
2016-08-20T00:02:05.181Z,17.59
2016-08-20T00:03:05.182Z,17.68
2016-08-20T00:04:04.463Z,17.63
2016-08-20T00:05:05.182Z,17.6
2016-08-20T00:06:04.479Z,17.66
2016-08-20T00:07:05.190Z,17.65
2016-08-20T00:08:05.182Z,17.65
2016-08-20T00:09:05.182Z,17.6
2016-08-20T00:10:05.182Z,17.65
2016-08-20T00:11:04.466Z,17.6
2016-08-20T00:12:05.183Z,17.65
2016-08-20T00:13:05.182Z,17.63
2016-08-20T00:14:04.463Z,17.63
2016-08-20T00:15:04.463Z,17.69
2016-08-20T00:16:05.182Z,17.59
2016-08-20T00:17:05.191Z,17.6
2016-08-20T00:18:05.182Z,17.6
2016-08-20T00:19:05.183Z,17.65
2016-08-20T00:20:05.187Z,17.57
2016-08-20T00:21:05.190Z,17.6
2016-08-20T00:22:05.187Z,17.59
2016-08-20T00:23:05.186Z,17.66
2016-08-20T00:24:05.190Z,17.68
2016-08-20T00:25:04.467Z,17.59
2016-08-20T00:26:05.194Z,17.68
2016-08-20T00:27:04.466Z,17.6
2016-08-20T00:28:05.196Z,17.59
2016-08-20T00:29:05.188Z,17.56
2016-08-20T00:30:04.464Z,17.66
2016-08-20T00:31:05.187Z,17.72
2016-08-20T00:32:04.468Z,17.69
2016-08-20T00:33:04.523Z,17.71
2016-08-20T00:34:05.188Z,17.69
2016-08-20T00:35:05.191Z,17.68
2016-08-20T00:36:05.191Z,17.71
2016-08-20T00:37:05.192Z,17.66
2016-08-20T00:38:05.191Z,17.63
2016-08-20T00:39:05.200Z,17.6
2016-08-20T00:40:04.471Z,17.63
2016-08-20T00:41:05.191Z,17.5
2016-08-20T00:42:05.192Z,17.54
2016-08-20T00:43:04.472Z,17.54
2016-08-20T00:44:04.472Z,17.56
2016-08-20T00:45:05.195Z,17.5
2016-08-20T00:46:05.191Z,17.57
2016-08-20T00:47:05.192Z,17.41
2016-08-20T00:48:04.472Z,17.54
2016-08-20T00:49:05.193Z,17.53
2016-08-20T00:50:05.192Z,17.6
2016-08-20T00:51:05.193Z,17.6
2016-08-20T00:52:04.471Z,17.65
2016-08-20T00:53:04.473Z,17.59
2016-08-20T00:54:05.197Z,17.6
2016-08-20T00:55:05.197Z,17.6
2016-08-20T00:56:05.192Z,17.68
2016-08-20T00:57:05.192Z,17.66
2016-08-20T00:58:05.200Z,17.57
2016-08-20T00:59:03.752Z,17.68
2016-08-20T01:00:05.197Z,17.72
2016-08-20T01:01:05.196Z,17.73
2016-08-20T01:02:04.492Z,17.72
2016-08-20T01:03:05.197Z,17.75
2016-08-20T01:04:05.205Z,17.8
2016-08-20T01:05:05.193Z,17.82
2016-08-20T01:06:05.196Z,17.75
2016-08-20T01:07:05.197Z,17.82
2016-08-20T01:08:04.476Z,17.79
2016-08-20T01:09:04.476Z,17.8
2016-08-20T01:10:05.196Z,17.78
2016-08-20T01:11:05.197Z,17.8
2016-08-20T01:12:05.197Z,17.78
2016-08-20T01:13:05.197Z,17.79
2016-08-20T01:14:04.477Z,17.79
2016-08-20T01:15:03.764Z,17.76
2016-08-20T01:16:05.205Z,17.79
2016-08-20T01:17:05.197Z,17.76
2016-08-20T01:18:05.197Z,17.82
2016-08-20T01:19:04.477Z,17.78
2016-08-20T01:20:04.477Z,17.8
2016-08-20T01:21:05.197Z,17.87
2016-08-20T01:22:05.197Z,17.82
2016-08-20T01:23:05.196Z,17.75
2016-08-20T01:24:05.205Z,17.84
2016-08-20T01:25:05.197Z,17.86
2016-08-20T01:26:04.477Z,17.82
2016-08-20T01:27:05.213Z,17.8
2016-08-20T01:28:04.477Z,17.84
2016-08-20T01:29:04.481Z,17.79
2016-08-20T01:30:05.204Z,17.76
2016-08-20T01:31:05.201Z,17.8
2016-08-20T01:32:05.201Z,17.76
2016-08-20T01:33:05.198Z,17.8
2016-08-20T01:34:05.250Z,17.79
2016-08-20T01:35:05.202Z,17.84
2016-08-20T01:36:03.761Z,17.82
2016-08-20T01:37:05.201Z,17.87
2016-08-20T01:38:05.201Z,17.79
2016-08-20T01:39:05.202Z,17.79
2016-08-20T01:40:05.201Z,17.76
2016-08-20T01:41:05.202Z,17.76
2016-08-20T01:42:05.202Z,17.84
2016-08-20T01:43:05.202Z,17.8
2016-08-20T01:44:05.202Z,17.82
2016-08-20T01:45:05.203Z,17.82
2016-08-20T01:46:05.201Z,17.8
2016-08-20T01:47:05.218Z,17.87
2016-08-20T01:48:05.201Z,17.86
2016-08-20T01:49:04.482Z,17.86
2016-08-20T01:50:05.198Z,17.9
2016-08-20T01:51:05.202Z,17.86
2016-08-20T01:52:04.483Z,17.91
2016-08-20T01:53:05.202Z,17.91
2016-08-20T01:54:05.204Z,17.95
2016-08-20T01:55:05.203Z,17.91
2016-08-20T01:56:05.202Z,17.91
2016-08-20T01:57:05.203Z,17.82
2016-08-20T01:58:05.203Z,17.9
2016-08-20T01:59:03.767Z,17.86
2016-08-20T02:00:05.207Z,17.87
2016-08-20T02:01:05.202Z,17.79
2016-08-20T02:02:05.210Z,17.87
2016-08-20T02:03:04.487Z,17.86
2016-08-20T02:04:05.203Z,17.8
2016-08-20T02:05:05.211Z,17.78
2016-08-20T02:06:05.207Z,17.79
2016-08-20T02:07:05.207Z,17.82
2016-08-20T02:08:05.207Z,17.8
2016-08-20T02:09:05.208Z,17.78
2016-08-20T02:10:04.499Z,17.8
2016-08-20T02:11:05.210Z,17.79
2016-08-20T02:12:05.208Z,17.82
2016-08-20T02:13:04.488Z,17.79
2016-08-20T02:14:04.491Z,17.78
2016-08-20T02:15:05.208Z,17.68
2016-08-20T02:16:04.487Z,17.66
2016-08-20T02:17:05.207Z,17.65
2016-08-20T02:18:05.207Z,17.65
2016-08-20T02:19:05.208Z,17.71
2016-08-20T02:20:05.219Z,17.63
2016-08-20T02:21:05.207Z,17.6
2016-08-20T02:22:05.207Z,17.52
2016-08-20T02:23:04.488Z,17.6
2016-08-20T02:24:05.208Z,17.44
2016-08-20T02:25:04.488Z,17.46
2016-08-20T02:26:04.488Z,17.47
2016-08-20T02:27:05.208Z,17.46
2016-08-20T02:28:05.212Z,17.44
2016-08-20T02:29:05.208Z,17.39
2016-08-20T02:30:05.208Z,17.37
2016-08-20T02:31:05.212Z,17.44
2016-08-20T02:32:05.227Z,17.37
2016-08-20T02:33:05.260Z,17.37
2016-08-20T02:34:05.212Z,17.41
2016-08-20T02:35:05.212Z,17.38
2016-08-20T02:36:05.216Z,17.34
2016-08-20T02:37:05.212Z,17.38
2016-08-20T02:38:05.212Z,17.42
2016-08-20T02:39:05.212Z,17.38
2016-08-20T02:40:03.772Z,17.38
2016-08-20T02:41:04.492Z,17.39
2016-08-20T02:42:05.213Z,17.35
2016-08-20T02:43:05.209Z,17.41
2016-08-20T02:44:05.213Z,17.44
2016-08-20T02:45:05.216Z,17.38
2016-08-20T02:46:05.212Z,17.46
2016-08-20T02:47:04.492Z,17.41
2016-08-20T02:48:05.220Z,17.41
2016-08-20T02:49:04.493Z,17.44
2016-08-20T02:50:05.213Z,17.38
2016-08-20T02:51:05.209Z,17.39
2016-08-20T02:52:05.212Z,17.3
2016-08-20T02:53:05.213Z,17.3
2016-08-20T02:54:05.212Z,17.41
2016-08-20T02:55:05.212Z,17.24
2016-08-20T02:56:05.212Z,17.34
2016-08-20T02:57:05.229Z,17.34
2016-08-20T02:58:05.218Z,17.32
2016-08-20T02:59:05.229Z,17.31
2016-08-20T03:00:04.497Z,17.35
2016-08-20T03:01:04.493Z,17.32
2016-08-20T03:02:05.213Z,17.28
2016-08-20T03:03:05.213Z,17.35
2016-08-20T03:04:04.497Z,17.32
2016-08-20T03:05:05.210Z,17.37
2016-08-20T03:06:04.493Z,17.34
2016-08-20T03:07:05.213Z,17.35
2016-08-20T03:08:04.493Z,17.35
2016-08-20T03:09:04.494Z,17.46
2016-08-20T03:10:04.493Z,17.42
2016-08-20T03:11:05.213Z,17.46
2016-08-20T03:12:05.218Z,17.42
2016-08-20T03:13:05.213Z,17.52
2016-08-20T03:14:05.217Z,17.54
2016-08-20T03:15:05.214Z,17.63
2016-08-20T03:16:05.216Z,17.56
2016-08-20T03:17:05.213Z,17.65
2016-08-20T03:18:05.213Z,17.66
2016-08-20T03:19:05.217Z,17.63
2016-08-20T03:20:05.218Z,17.57
2016-08-20T03:21:05.210Z,17.59
2016-08-20T03:22:04.498Z,17.63
2016-08-20T03:23:05.218Z,17.53
2016-08-20T03:24:05.222Z,17.47
2016-08-20T03:25:05.218Z,17.42
2016-08-20T03:26:05.213Z,17.5
2016-08-20T03:27:05.218Z,17.47
2016-08-20T03:28:05.218Z,17.47
2016-08-20T03:29:05.218Z,17.52
2016-08-20T03:30:05.218Z,17.49
2016-08-20T03:31:05.217Z,17.52
2016-08-20T03:32:04.510Z,17.52
2016-08-20T03:33:05.218Z,17.49
2016-08-20T03:34:05.218Z,17.46
2016-08-20T03:35:05.218Z,17.47
2016-08-20T03:36:05.217Z,17.47
2016-08-20T03:37:05.218Z,17.52
2016-08-20T03:38:05.218Z,17.47
2016-08-20T03:39:05.218Z,17.49
2016-08-20T03:40:05.218Z,17.49
2016-08-20T03:41:05.218Z,17.52
2016-08-20T03:42:04.498Z,17.42
2016-08-20T03:43:05.226Z,17.47
2016-08-20T03:44:05.218Z,17.46
2016-08-20T03:45:05.218Z,17.52
2016-08-20T03:46:05.223Z,17.49
2016-08-20T03:47:05.230Z,17.52
2016-08-20T03:48:04.499Z,17.44
2016-08-20T03:49:05.222Z,17.44
2016-08-20T03:50:05.235Z,17.44
2016-08-20T03:51:05.218Z,17.39
2016-08-20T03:52:04.498Z,17.35
2016-08-20T03:53:04.499Z,17.39
2016-08-20T03:54:05.218Z,17.31
2016-08-20T03:55:05.223Z,17.37
2016-08-20T03:56:04.499Z,17.34
2016-08-20T03:57:05.227Z,17.32
2016-08-20T03:58:05.236Z,17.27
2016-08-20T03:59:05.219Z,17.22
2016-08-20T04:00:05.219Z,17.3
2016-08-20T04:01:05.219Z,17.16
2016-08-20T04:02:05.227Z,17.14
2016-08-20T04:03:05.219Z,17.1
2016-08-20T04:04:05.215Z,17.13
2016-08-20T04:05:05.220Z,17.07
2016-08-20T04:06:04.499Z,17.07
2016-08-20T04:07:05.219Z,17.19
2016-08-20T04:08:04.515Z,17.13
2016-08-20T04:09:05.225Z,17.23
2016-08-20T04:10:05.220Z,17.16
2016-08-20T04:11:05.220Z,17.07
2016-08-20T04:12:05.220Z,17.17
2016-08-20T04:13:05.219Z,17.12
2016-08-20T04:14:05.219Z,17.1
2016-08-20T04:15:05.219Z,17.13
2016-08-20T04:16:05.219Z,17.04
2016-08-20T04:17:05.224Z,17.12
2016-08-20T04:18:05.235Z,17.05
2016-08-20T04:19:05.224Z,17.05
2016-08-20T04:20:04.504Z,17.02
2016-08-20T04:21:05.224Z,17.04
2016-08-20T04:22:05.224Z,17.04
2016-08-20T04:23:05.228Z,17.09
2016-08-20T04:24:04.513Z,17.14
2016-08-20T04:25:05.220Z,17.1
2016-08-20T04:26:05.220Z,17.01
2016-08-20T04:27:05.236Z,17.14
2016-08-20T04:28:05.224Z,17.1
2016-08-20T04:29:05.220Z,17.14
2016-08-20T04:30:05.220Z,17.14
2016-08-20T04:31:05.220Z,17.04
2016-08-20T04:32:05.220Z,17.14
2016-08-20T04:33:05.381Z,17.12
2016-08-20T04:34:04.504Z,17.19
2016-08-20T04:35:04.499Z,17.16
2016-08-20T04:36:04.504Z,17.09
2016-08-20T04:37:05.220Z,17.13
2016-08-20T04:38:05.224Z,17.12
2016-08-20T04:39:04.500Z,17.1
2016-08-20T04:40:05.229Z,17.07
2016-08-20T04:41:05.232Z,17.14
2016-08-20T04:42:05.220Z,17.17
2016-08-20T04:43:05.237Z,17.05
2016-08-20T04:44:04.507Z,17.13
2016-08-20T04:45:05.220Z,17.12
2016-08-20T04:46:05.221Z,17.14
2016-08-20T04:47:05.219Z,17.27
2016-08-20T04:48:04.500Z,17.23
2016-08-20T04:49:05.215Z,17.32
2016-08-20T04:50:04.501Z,17.34
2016-08-20T04:51:05.244Z,17.42
2016-08-20T04:52:05.221Z,17.44
2016-08-20T04:53:05.221Z,17.46
2016-08-20T04:54:04.501Z,17.46
2016-08-20T04:55:05.224Z,17.53
2016-08-20T04:56:05.221Z,17.57
2016-08-20T04:57:05.220Z,17.65
2016-08-20T04:58:04.512Z,17.66
2016-08-20T04:59:05.220Z,17.69
2016-08-20T05:00:04.505Z,17.66
2016-08-20T05:01:04.505Z,17.76
2016-08-20T05:02:05.226Z,17.8
2016-08-20T05:03:04.500Z,17.94
2016-08-20T05:04:05.225Z,17.9
2016-08-20T05:05:05.226Z,17.88
2016-08-20T05:06:03.784Z,17.94
2016-08-20T05:07:05.225Z,17.98
2016-08-20T05:08:05.225Z,18.03
2016-08-20T05:09:04.505Z,18.11
2016-08-20T05:10:04.505Z,18.02
2016-08-20T05:11:04.505Z,18.09
2016-08-20T05:12:05.225Z,18.03
2016-08-20T05:13:04.505Z,18
2016-08-20T05:14:03.785Z,18.05
2016-08-20T05:15:05.226Z,17.91
2016-08-20T05:16:05.233Z,17.97
2016-08-20T05:17:05.229Z,17.95
2016-08-20T05:18:05.246Z,17.97
2016-08-20T05:19:05.229Z,18.13
2016-08-20T05:20:04.509Z,18.19
2016-08-20T05:21:05.230Z,18.18
2016-08-20T05:22:05.229Z,18.41
2016-08-20T05:23:05.230Z,18.53
2016-08-20T05:24:05.229Z,18.74
2016-08-20T05:25:05.233Z,18.89
2016-08-20T05:26:04.510Z,19.22
2016-08-20T05:27:05.230Z,19.59
2016-08-20T05:28:05.229Z,20.21
2016-08-20T05:29:05.251Z,20.71
2016-08-20T05:30:05.237Z,21.32
2016-08-20T05:31:04.514Z,21.89
2016-08-20T05:32:05.234Z,22.36
2016-08-20T05:33:05.233Z,22.8
2016-08-20T05:34:05.238Z,23.07
2016-08-20T05:35:04.518Z,23.33
2016-08-20T05:36:05.242Z,23.44
2016-08-20T05:37:04.518Z,23.47
2016-08-20T05:38:04.525Z,23.32
2016-08-20T05:39:05.243Z,23.02
2016-08-20T05:40:04.523Z,22.88
2016-08-20T05:41:05.245Z,22.63
2016-08-20T05:42:05.247Z,22.46
2016-08-20T05:43:04.527Z,22.22
2016-08-20T05:44:05.246Z,22.07
2016-08-20T05:45:03.827Z,21.88
2016-08-20T05:46:05.259Z,21.89
2016-08-20T05:47:04.530Z,22.08
2016-08-20T05:48:05.255Z,22.21
2016-08-20T05:49:05.254Z,22.19
2016-08-20T05:50:04.539Z,22.31
2016-08-20T05:51:05.259Z,22.38
2016-08-20T05:52:05.258Z,22.52
2016-08-20T05:53:05.267Z,22.83
2016-08-20T05:54:04.542Z,23.18
2016-08-20T05:55:04.554Z,23.37
2016-08-20T05:56:05.270Z,23.74
2016-08-20T05:57:04.546Z,24.11
2016-08-20T05:58:04.551Z,24.61
2016-08-20T05:59:04.551Z,25.31
2016-08-20T06:00:04.555Z,26.08
2016-08-20T06:01:05.279Z,26.61
2016-08-20T06:02:05.279Z,26.71
2016-08-20T06:03:05.278Z,26.6
2016-08-20T06:04:04.563Z,26.22
2016-08-20T06:05:05.282Z,25.86
2016-08-20T06:06:05.291Z,25.48
2016-08-20T06:07:04.567Z,25.03
2016-08-20T06:08:03.855Z,24.66
2016-08-20T06:09:04.579Z,24.47
2016-08-20T06:10:04.575Z,24.06
2016-08-20T06:11:05.299Z,23.99
2016-08-20T06:12:05.315Z,24.21
2016-08-20T06:13:05.304Z,24.81
2016-08-20T06:14:05.303Z,25.56
2016-08-20T06:15:05.307Z,26.39
2016-08-20T06:16:05.307Z,27.33
2016-08-20T06:17:05.323Z,28.27
2016-08-20T06:18:05.316Z,28.83
2016-08-20T06:19:05.319Z,29.28
2016-08-20T06:20:04.608Z,29.73
2016-08-20T06:21:05.323Z,30.03
2016-08-20T06:22:04.607Z,30.58
2016-08-20T06:23:05.327Z,31.07
2016-08-20T06:24:05.332Z,31.48
2016-08-20T06:25:04.620Z,31.85
2016-08-20T06:26:05.340Z,32.34
2016-08-20T06:27:04.624Z,32.78
2016-08-20T06:28:05.356Z,33.09
2016-08-20T06:29:05.351Z,33.33
2016-08-20T06:30:05.356Z,33.44
2016-08-20T06:31:05.360Z,33.31
2016-08-20T06:32:05.372Z,33.15
2016-08-20T06:33:05.415Z,33.12
2016-08-20T06:34:05.373Z,33.19
2016-08-20T06:35:05.388Z,33.31
2016-08-20T06:36:05.380Z,33.73
2016-08-20T06:37:04.668Z,34.02
2016-08-20T06:38:04.672Z,34
2016-08-20T06:39:05.399Z,33.97
2016-08-20T06:40:04.680Z,33.84
2016-08-20T06:41:04.685Z,33.85
2016-08-20T06:42:04.692Z,33.89
2016-08-20T06:43:04.693Z,34.03
2016-08-20T06:44:05.416Z,34.24
2016-08-20T06:45:05.436Z,34.38
2016-08-20T06:46:05.429Z,34.56
2016-08-20T06:47:05.431Z,35.08
2016-08-20T06:48:04.717Z,35.57
2016-08-20T06:49:05.453Z,36.16
2016-08-20T06:50:04.729Z,36.63
2016-08-20T06:51:05.453Z,36.85
2016-08-20T06:52:05.461Z,36.76
2016-08-20T06:53:05.465Z,36.45
2016-08-20T06:54:05.473Z,36.01
2016-08-20T06:55:04.040Z,35.64
2016-08-20T06:56:04.762Z,35.71
2016-08-20T06:57:05.489Z,35.9
2016-08-20T06:58:05.492Z,36.11
2016-08-20T06:59:05.501Z,36.5
2016-08-20T07:00:05.505Z,36.94
2016-08-20T07:01:05.509Z,37.33
2016-08-20T07:02:05.517Z,37.56
2016-08-20T07:03:04.800Z,38.07
2016-08-20T07:04:05.528Z,38.57
2016-08-20T07:05:05.541Z,39.15
2016-08-20T07:06:05.544Z,39.85
2016-08-20T07:07:05.545Z,40.36
2016-08-20T07:08:05.553Z,40.81
2016-08-20T07:09:05.560Z,41.42
2016-08-20T07:10:05.565Z,41.95
2016-08-20T07:11:05.573Z,42.52
2016-08-20T07:12:05.582Z,42.93
2016-08-20T07:13:05.586Z,43.41
2016-08-20T07:14:05.593Z,43.57
2016-08-20T07:15:04.881Z,43.47
2016-08-20T07:16:05.605Z,42.82
2016-08-20T07:17:05.613Z,41.95
2016-08-20T07:18:05.621Z,41.36
2016-08-20T07:19:05.625Z,40.76
2016-08-20T07:20:05.634Z,40.39
2016-08-20T07:21:05.642Z,40.44
2016-08-20T07:22:05.649Z,40.95
2016-08-20T07:23:05.654Z,41.57
2016-08-20T07:24:05.669Z,41.93
2016-08-20T07:25:05.669Z,42.02
2016-08-20T07:26:05.679Z,41.76
2016-08-20T07:27:05.689Z,41.67
2016-08-20T07:28:05.689Z,41.48
2016-08-20T07:29:05.697Z,41.26
2016-08-20T07:30:05.697Z,40.98
2016-08-20T07:31:05.709Z,40.8
2016-08-20T07:32:05.722Z,40.29
2016-08-20T07:33:05.733Z,39.73
2016-08-20T07:34:05.729Z,38.9
2016-08-20T07:35:05.739Z,37.94
2016-08-20T07:36:05.742Z,36.75
2016-08-20T07:37:05.758Z,35.91
2016-08-20T07:38:05.758Z,35.2
2016-08-20T07:39:05.769Z,34.76
2016-08-20T07:40:05.769Z,34.28
2016-08-20T07:41:05.786Z,33.76
2016-08-20T07:42:05.781Z,33.13
2016-08-20T07:43:05.792Z,32.44
2016-08-20T07:44:05.794Z,32.11
2016-08-20T07:45:05.799Z,31.82
2016-08-20T07:46:05.086Z,31.66
2016-08-20T07:47:05.810Z,31.57
2016-08-20T07:48:05.818Z,31.42
2016-08-20T07:49:05.826Z,31.04
2016-08-20T07:50:06.030Z,30.73
2016-08-20T07:51:05.838Z,30.59
2016-08-20T07:52:05.838Z,30.44
2016-08-20T07:53:05.847Z,30.26
2016-08-20T07:54:05.851Z,30.21
2016-08-20T07:55:05.855Z,30.1
2016-08-20T07:56:05.863Z,30.01
2016-08-20T07:57:05.867Z,29.95
2016-08-20T07:58:05.871Z,29.87
2016-08-20T07:59:05.879Z,29.84
2016-08-20T08:00:05.903Z,29.86
2016-08-20T08:01:05.887Z,29.9
2016-08-20T08:02:05.891Z,29.92
2016-08-20T08:03:05.899Z,29.96
2016-08-20T08:04:05.906Z,29.92
2016-08-20T08:05:05.911Z,30.1
2016-08-20T08:06:05.911Z,30.21
2016-08-20T08:07:05.927Z,30.21
2016-08-20T08:08:05.923Z,30.16
2016-08-20T08:09:05.926Z,30.23
2016-08-20T08:10:05.931Z,30.29
2016-08-20T08:11:05.943Z,30.35
2016-08-20T08:12:05.943Z,30.54
2016-08-20T08:13:05.947Z,30.63
2016-08-20T08:14:05.951Z,30.49
2016-08-20T08:15:05.956Z,30.63
2016-08-20T08:16:05.960Z,30.69
2016-08-20T08:17:05.247Z,30.62
2016-08-20T08:18:05.968Z,30.69
2016-08-20T08:19:05.976Z,30.74
2016-08-20T08:20:05.983Z,30.7
2016-08-20T08:21:05.996Z,30.81
2016-08-20T08:22:05.987Z,30.86
2016-08-20T08:23:05.993Z,30.88
2016-08-20T08:24:05.995Z,30.92
2016-08-20T08:25:05.996Z,31.11
2016-08-20T08:26:06.004Z,31.33
2016-08-20T08:27:06.008Z,31.29
2016-08-20T08:28:06.015Z,31.41
2016-08-20T08:29:06.020Z,31.48
2016-08-20T08:30:06.032Z,31.42
2016-08-20T08:31:06.039Z,31.54
2016-08-20T08:32:06.032Z,31.51
2016-08-20T08:33:06.088Z,31.59
2016-08-20T08:34:06.039Z,31.52
2016-08-20T08:35:06.044Z,31.57
2016-08-20T08:36:06.048Z,31.59
2016-08-20T08:37:06.052Z,31.6
2016-08-20T08:38:06.056Z,31.48
2016-08-20T08:39:06.060Z,31.45
2016-08-20T08:40:06.069Z,31.42
2016-08-20T08:41:06.073Z,31.37
2016-08-20T08:42:05.351Z,31.36
2016-08-20T08:43:06.080Z,31.36
2016-08-20T08:44:06.080Z,31.52
2016-08-20T08:45:06.088Z,31.67
2016-08-20T08:46:05.372Z,31.82
2016-08-20T08:47:06.096Z,32.08
2016-08-20T08:48:06.101Z,32.37
2016-08-20T08:49:06.113Z,32.68
2016-08-20T08:50:06.116Z,33.05
2016-08-20T08:51:06.113Z,33.32
2016-08-20T08:52:05.400Z,33.55
2016-08-20T08:53:06.120Z,33.65
2016-08-20T08:54:06.125Z,33.58
2016-08-20T08:55:06.129Z,33.54
2016-08-20T08:56:06.136Z,33.57
2016-08-20T08:57:06.137Z,33.47
2016-08-20T08:58:06.150Z,33.48
2016-08-20T08:59:06.148Z,33.39
2016-08-20T09:00:06.153Z,33.39
2016-08-20T09:01:06.157Z,33.28
2016-08-20T09:02:06.161Z,33.2
2016-08-20T09:03:06.165Z,33.1
2016-08-20T09:04:06.169Z,32.94
2016-08-20T09:05:06.173Z,32.83
2016-08-20T09:06:06.177Z,32.72
2016-08-20T09:07:04.740Z,32.54
2016-08-20T09:08:06.188Z,32.44
2016-08-20T09:09:04.748Z,32.09
2016-08-20T09:10:05.472Z,31.89
2016-08-20T09:11:05.477Z,31.6
2016-08-20T09:12:06.201Z,31.5
2016-08-20T09:13:06.218Z,31.33
2016-08-20T09:14:06.213Z,31.36
2016-08-20T09:15:06.233Z,31.23
2016-08-20T09:16:06.217Z,31.3
2016-08-20T09:17:06.221Z,31.3
2016-08-20T09:18:05.517Z,31.44
2016-08-20T09:19:06.230Z,31.39
2016-08-20T09:20:06.251Z,31.52
2016-08-20T09:21:06.246Z,31.63
2016-08-20T09:22:06.242Z,31.52
2016-08-20T09:23:06.250Z,31.72
2016-08-20T09:24:06.254Z,31.79
2016-08-20T09:25:05.537Z,31.86
2016-08-20T09:26:06.262Z,32
2016-08-20T09:27:05.544Z,32.01
2016-08-20T09:28:06.269Z,32.12
2016-08-20T09:29:06.273Z,32.09
2016-08-20T09:30:06.278Z,32.02
2016-08-20T09:31:06.282Z,31.87
2016-08-20T09:32:06.286Z,31.85
2016-08-20T09:33:06.293Z,31.72
2016-08-20T09:34:06.303Z,31.57
2016-08-20T09:35:06.298Z,31.22
2016-08-20T09:36:05.597Z,31.07
2016-08-20T09:37:06.306Z,30.81
2016-08-20T09:38:06.310Z,30.48
2016-08-20T09:39:06.314Z,30.2
2016-08-20T09:40:06.317Z,29.99
2016-08-20T09:41:06.321Z,30.01
2016-08-20T09:42:06.325Z,29.71
2016-08-20T09:43:05.610Z,29.55
2016-08-20T09:44:06.334Z,29.37
2016-08-20T09:45:06.342Z,29.18
2016-08-20T09:46:06.338Z,28.97
2016-08-20T09:47:06.342Z,28.75
2016-08-20T09:48:05.638Z,28.72
2016-08-20T09:49:06.350Z,28.47
2016-08-20T09:50:05.634Z,28.38
2016-08-20T09:51:06.370Z,28.27
2016-08-20T09:52:06.370Z,28.27
2016-08-20T09:53:06.371Z,28.03
2016-08-20T09:54:05.654Z,27.95
2016-08-20T09:55:06.371Z,27.75
2016-08-20T09:56:06.374Z,27.67
2016-08-20T09:57:06.378Z,27.57
2016-08-20T09:58:06.382Z,27.5
2016-08-20T09:59:05.662Z,27.44
2016-08-20T10:00:06.394Z,27.41
2016-08-20T10:01:06.394Z,27.25
2016-08-20T10:02:06.398Z,27.22
2016-08-20T10:03:06.402Z,27.16
2016-08-20T10:04:04.966Z,27.19
2016-08-20T10:05:06.407Z,27.15
2016-08-20T10:06:06.411Z,27.22
2016-08-20T10:07:05.694Z,27.19
2016-08-20T10:08:06.419Z,27.2
2016-08-20T10:09:05.703Z,27.22
2016-08-20T10:10:06.423Z,27.16
2016-08-20T10:11:06.427Z,27.13
2016-08-20T10:12:06.430Z,27.16
2016-08-20T10:13:05.714Z,27.07
2016-08-20T10:14:06.439Z,27.05
2016-08-20T10:15:06.442Z,26.88
2016-08-20T10:16:05.723Z,26.85
2016-08-20T10:17:06.447Z,26.81
2016-08-20T10:18:06.451Z,26.74
2016-08-20T10:19:05.735Z,26.63
2016-08-20T10:20:06.459Z,26.7
2016-08-20T10:21:06.459Z,26.74
2016-08-20T10:22:06.463Z,26.73
2016-08-20T10:23:06.468Z,26.74
2016-08-20T10:24:06.468Z,26.78
2016-08-20T10:25:06.472Z,26.85
2016-08-20T10:26:05.755Z,26.88
2016-08-20T10:27:06.478Z,26.96
2016-08-20T10:28:06.480Z,26.92
2016-08-20T10:29:06.484Z,27.07
2016-08-20T10:30:05.768Z,27.05
2016-08-20T10:31:06.490Z,27.05
2016-08-20T10:32:06.509Z,27.05
2016-08-20T10:33:06.553Z,27.04
2016-08-20T10:34:06.503Z,27.05
2016-08-20T10:35:05.784Z,26.97
2016-08-20T10:36:05.783Z,26.92
2016-08-20T10:37:05.069Z,26.88
2016-08-20T10:38:06.512Z,26.82
2016-08-20T10:39:06.516Z,26.81
2016-08-20T10:40:06.519Z,26.79
2016-08-20T10:41:05.799Z,26.76
2016-08-20T10:42:06.527Z,26.7
2016-08-20T10:43:06.528Z,26.64
2016-08-20T10:44:05.808Z,26.64
2016-08-20T10:45:06.532Z,26.63
2016-08-20T10:46:06.539Z,26.61
2016-08-20T10:47:06.536Z,26.49
2016-08-20T10:48:06.540Z,26.63
2016-08-20T10:49:05.828Z,26.52
2016-08-20T10:50:05.108Z,26.55
2016-08-20T10:51:06.552Z,26.48
2016-08-20T10:52:06.553Z,26.34
2016-08-20T10:53:06.556Z,26.27
2016-08-20T10:54:06.557Z,26.3
2016-08-20T10:55:06.563Z,26.26
2016-08-20T10:56:06.564Z,26.19
2016-08-20T10:57:05.845Z,26.19
2016-08-20T10:58:06.568Z,26.23
2016-08-20T10:59:05.852Z,26.18
2016-08-20T11:00:06.584Z,26.13
2016-08-20T11:01:06.576Z,26.13
2016-08-20T11:02:06.581Z,26.22
2016-08-20T11:03:06.585Z,26.1
2016-08-20T11:04:06.583Z,26.22
2016-08-20T11:05:06.588Z,26.31
2016-08-20T11:06:05.868Z,26.3
2016-08-20T11:07:06.603Z,26.34
2016-08-20T11:08:06.597Z,26.37
2016-08-20T11:09:05.161Z,26.52
2016-08-20T11:10:05.877Z,26.49
2016-08-20T11:11:05.885Z,26.66
2016-08-20T11:12:06.604Z,26.74
2016-08-20T11:13:06.608Z,26.85
2016-08-20T11:14:06.613Z,26.92
2016-08-20T11:15:05.897Z,27.01
2016-08-20T11:16:05.897Z,27.05
2016-08-20T11:17:05.900Z,27.15
2016-08-20T11:18:05.909Z,27.19
2016-08-20T11:19:05.909Z,27.25
2016-08-20T11:20:06.630Z,27.34
2016-08-20T11:21:06.630Z,27.22
2016-08-20T11:22:06.630Z,27.22
2016-08-20T11:23:06.642Z,27.15
2016-08-20T11:24:06.638Z,27.05
2016-08-20T11:25:05.920Z,26.88
2016-08-20T11:26:06.646Z,26.86
2016-08-20T11:27:06.641Z,26.85
2016-08-20T11:28:06.650Z,26.71
2016-08-20T11:29:06.653Z,26.67
2016-08-20T11:30:05.936Z,26.61
2016-08-20T11:31:06.673Z,26.55
2016-08-20T11:32:06.662Z,26.39
2016-08-20T11:33:05.946Z,26.29
2016-08-20T11:34:06.666Z,26.31
2016-08-20T11:35:06.665Z,26.23
2016-08-20T11:36:05.230Z,26.1
2016-08-20T11:37:06.674Z,26.1
2016-08-20T11:38:05.957Z,25.96
2016-08-20T11:39:06.678Z,25.95
2016-08-20T11:40:06.682Z,25.83
2016-08-20T11:41:05.978Z,25.83
2016-08-20T11:42:06.685Z,25.81
2016-08-20T11:43:06.691Z,25.83
2016-08-20T11:44:06.694Z,25.63
2016-08-20T11:45:06.710Z,25.59
2016-08-20T11:46:06.705Z,25.52
2016-08-20T11:47:05.977Z,25.44
2016-08-20T11:48:06.703Z,25.37
2016-08-20T11:49:05.987Z,25.34
2016-08-20T11:50:06.706Z,25.3
2016-08-20T11:51:06.711Z,25.31
2016-08-20T11:52:06.710Z,25.25
2016-08-20T11:53:06.715Z,25.25
2016-08-20T11:54:06.718Z,25.21
2016-08-20T11:55:06.739Z,25.19
2016-08-20T11:56:06.003Z,25.15
2016-08-20T11:57:06.727Z,25.16
2016-08-20T11:58:06.727Z,25.19
2016-08-20T11:59:06.731Z,25.15
2016-08-20T12:00:06.731Z,25.18
2016-08-20T12:01:06.735Z,25.22
2016-08-20T12:02:06.739Z,25.22
2016-08-20T12:03:06.739Z,25.29
2016-08-20T12:04:06.744Z,25.31
2016-08-20T12:05:06.751Z,25.37
2016-08-20T12:06:06.748Z,25.46
2016-08-20T12:07:06.031Z,25.61
2016-08-20T12:08:06.755Z,25.61
2016-08-20T12:09:06.755Z,25.68
2016-08-20T12:10:06.763Z,25.71
2016-08-20T12:11:06.039Z,25.74
2016-08-20T12:12:06.763Z,25.91
2016-08-20T12:13:06.767Z,25.91
2016-08-20T12:14:06.767Z,25.98
2016-08-20T12:15:06.772Z,25.93
2016-08-20T12:16:06.055Z,25.96
2016-08-20T12:17:06.776Z,25.91
2016-08-20T12:18:06.780Z,25.85
2016-08-20T12:19:06.063Z,25.88
2016-08-20T12:20:06.800Z,25.86
2016-08-20T12:21:06.788Z,25.83
2016-08-20T12:22:06.789Z,25.88
2016-08-20T12:23:06.796Z,25.74
2016-08-20T12:24:06.797Z,25.81
2016-08-20T12:25:06.796Z,25.83
2016-08-20T12:26:06.096Z,25.95
2016-08-20T12:27:06.084Z,25.95
2016-08-20T12:28:06.808Z,26.04
2016-08-20T12:29:06.808Z,26.16
2016-08-20T12:30:06.092Z,26.22
2016-08-20T12:31:06.813Z,26.24
2016-08-20T12:32:06.817Z,26.23
2016-08-20T12:33:06.096Z,26.33
2016-08-20T12:34:06.100Z,26.39
2016-08-20T12:35:06.824Z,26.46
2016-08-20T12:36:06.836Z,26.52
2016-08-20T12:37:06.832Z,26.64
2016-08-20T12:38:06.841Z,26.6
2016-08-20T12:39:06.836Z,26.63
2016-08-20T12:40:06.837Z,26.6
2016-08-20T12:41:06.849Z,26.44
2016-08-20T12:42:06.845Z,26.41
2016-08-20T12:43:06.849Z,26.42
2016-08-20T12:44:06.850Z,26.51
2016-08-20T12:45:06.853Z,26.48
2016-08-20T12:46:06.854Z,26.45
2016-08-20T12:47:06.139Z,26.48
2016-08-20T12:48:06.857Z,26.44
2016-08-20T12:49:06.145Z,26.39
2016-08-20T12:50:06.874Z,26.39
2016-08-20T12:51:06.145Z,26.27
2016-08-20T12:52:06.868Z,26.24
2016-08-20T12:53:06.873Z,26.23
2016-08-20T12:54:06.873Z,26.29
2016-08-20T12:55:06.881Z,26.23